Time;durP1;ratioP1;P1;durP2;ratioP2;P2;SDS_P1;SDS_P2;PMS_P1;PMS_P2;Temp;Humidity;BMP_temperature;BMP_pressure;BME280_temperature;BME280_humidity;BME280_pressure;Samples;Min_cycle;Max_cycle;Signal;HPM_P1;HPM_P2
2021/08/08 00:00:57;;;;;;;0.28;0.28;;;22.20;71.00;;;;;;5012407;28;20112;-49
2021/08/08 00:03:22;;;;;;;0.40;0.40;;;22.20;71.00;;;;;;5011923;28;20490;-54
2021/08/08 00:05:48;;;;;;;0.50;0.50;;;22.20;71.00;;;;;;5012236;28;20046;-54
2021/08/08 00:08:14;;;;;;;0.52;0.50;;;22.20;71.00;;;;;;5012123;28;20497;-55
2021/08/08 00:10:41;;;;;;;1.55;0.45;;;22.20;71.00;;;;;;5012050;28;20050;-50
2021/08/08 00:13:07;;;;;;;0.40;0.40;;;22.20;71.00;;;;;;5011085;28;20041;-54
2021/08/08 00:15:34;;;;;;;0.63;0.60;;;22.20;71.00;;;;;;5011947;28;20530;-54
2021/08/08 00:18:03;;;;;;;0.57;0.57;;;22.20;71.00;;;;;;5010522;28;20054;-51
2021/08/08 00:20:29;;;;;;;0.52;0.50;;;22.20;71.00;;;;;;5011866;28;20045;-56
2021/08/08 00:22:55;;;;;;;0.30;0.30;;;22.10;71.00;;;;;;5011885;28;20045;-50
2021/08/08 00:25:21;;;;;;;0.32;0.32;;;22.10;71.00;;;;;;5011751;28;20489;-48
2021/08/08 00:27:47;;;;;;;0.40;0.40;;;22.20;71.10;;;;;;5012018;28;20173;-54
2021/08/08 00:30:13;;;;;;;0.50;0.50;;;22.20;71.10;;;;;;5011277;28;20471;-53
2021/08/08 00:32:40;;;;;;;0.40;0.40;;;22.10;71.00;;;;;;5012102;28;20123;-51
2021/08/08 00:35:07;;;;;;;0.55;0.50;;;22.10;71.10;;;;;;5011902;28;20050;-54
2021/08/08 00:37:33;;;;;;;0.30;0.30;;;22.10;71.00;;;;;;5011557;28;20135;-53
2021/08/08 00:39:58;;;;;;;0.28;0.28;;;22.10;71.10;;;;;;5014606;28;20504;-50
2021/08/08 00:42:24;;;;;;;0.40;0.40;;;22.10;71.10;;;;;;5015411;28;20045;-58
2021/08/08 00:44:50;;;;;;;0.52;0.40;;;22.10;71.10;;;;;;5014965;28;20048;-53
2021/08/08 00:47:15;;;;;;;0.40;0.40;;;22.10;71.10;;;;;;5015663;28;20405;-57
2021/08/08 00:49:41;;;;;;;0.52;0.52;;;22.10;71.10;;;;;;5015149;28;20092;-55
2021/08/08 00:52:07;;;;;;;0.40;0.30;;;22.10;71.10;;;;;;5015655;28;20057;-53
2021/08/08 00:54:34;;;;;;;0.50;0.50;;;22.10;71.10;;;;;;5015983;28;20045;-55
2021/08/08 00:57:00;;;;;;;0.75;0.50;;;22.10;71.10;;;;;;5015455;28;20046;-50
2021/08/08 00:59:25;;;;;;;0.20;0.20;;;22.10;71.20;;;;;;5014158;28;20049;-47
2021/08/08 01:02:12;;;;;;;0.52;0.52;;;22.10;71.20;;;;;;5013712;28;20491;-49
2021/08/08 01:04:41;;;;;;;0.60;0.47;;;22.10;71.20;;;;;;5015105;28;20046;-53
2021/08/08 01:07:20;;;;;;;0.57;0.40;;;22.10;71.20;;;;;;5014758;28;20430;-54
2021/08/08 01:09:50;;;;;;;0.30;0.30;;;22.10;71.20;;;;;;5014948;28;20076;-54
2021/08/08 01:12:15;;;;;;;0.50;0.40;;;22.10;71.20;;;;;;5015328;28;20057;-55
2021/08/08 01:14:42;;;;;;;0.30;0.30;;;22.10;71.30;;;;;;5015147;28;20632;-53
2021/08/08 01:17:10;;;;;;;0.32;0.30;;;22.10;71.20;;;;;;5014042;28;20046;-55
2021/08/08 01:19:41;;;;;;;0.43;0.43;;;22.10;71.20;;;;;;5014989;28;20108;-56
2021/08/08 01:22:09;;;;;;;0.50;0.50;;;22.10;71.30;;;;;;5014482;28;20120;-54
2021/08/08 01:24:35;;;;;;;0.88;0.60;;;22.10;71.30;;;;;;5014567;28;20046;-55
2021/08/08 01:27:02;;;;;;;0.50;0.50;;;22.10;71.30;;;;;;5014520;28;20125;-54
2021/08/08 01:29:30;;;;;;;0.77;0.50;;;22.10;71.30;;;;;;5015124;28;20041;-55
2021/08/08 01:31:56;;;;;;;1.33;0.57;;;22.00;71.20;;;;;;5013893;28;20050;-57
2021/08/08 01:34:22;;;;;;;0.60;0.57;;;22.00;71.20;;;;;;5014727;28;20052;-58
2021/08/08 01:36:48;;;;;;;0.40;0.30;;;22.10;71.30;;;;;;5014636;28;20054;-56
2021/08/08 01:39:21;;;;;;;0.47;0.40;;;22.00;71.30;;;;;;5013379;28;20117;-57
2021/08/08 01:41:56;;;;;;;0.47;0.45;;;22.10;71.30;;;;;;5014233;28;20402;-49
2021/08/08 01:44:31;;;;;;;0.60;0.60;;;22.10;71.40;;;;;;5014408;28;20495;-55
2021/08/08 01:46:58;;;;;;;;;;;22.10;71.40;;;;;;5014118;28;20046;-51
2021/08/08 01:49:27;;;;;;;0.32;0.32;;;22.00;71.20;;;;;;5014321;28;20031;-51
2021/08/08 01:51:54;;;;;;;0.93;0.55;;;22.00;71.30;;;;;;5013813;28;20100;-57
2021/08/08 01:54:21;;;;;;;0.40;0.40;;;22.00;71.30;;;;;;5013358;28;20053;-48
2021/08/08 01:56:47;;;;;;;0.43;0.43;;;22.00;71.30;;;;;;5014338;28;20448;-56
2021/08/08 01:59:14;;;;;;;0.40;0.38;;;22.00;71.30;;;;;;5014234;28;20518;-49
2021/08/08 02:01:41;;;;;;;0.90;0.63;;;22.00;71.30;;;;;;5014526;28;20072;-47
2021/08/08 02:04:25;;;;;;;0.40;0.40;;;22.00;71.40;;;;;;5013855;28;20482;-52
2021/08/08 02:06:52;;;;;;;0.70;0.70;;;22.00;71.30;;;;;;5013408;28;20120;-54
2021/08/08 02:09:18;;;;;;;1.35;0.68;;;22.00;71.40;;;;;;5014111;28;20037;-46
2021/08/08 02:11:44;;;;;;;0.45;0.45;;;22.00;71.40;;;;;;5014265;28;20045;-56
2021/08/08 02:14:11;;;;;;;0.50;0.50;;;22.00;71.40;;;;;;5014046;28;20117;-49
2021/08/08 02:16:38;;;;;;;1.08;0.45;;;22.00;71.40;;;;;;5013952;28;20042;-50
2021/08/08 02:19:05;;;;;;;0.50;0.50;;;22.00;71.40;;;;;;5013195;28;20081;-46
2021/08/08 02:21:31;;;;;;;0.50;0.50;;;22.00;71.40;;;;;;5014242;28;20052;-50
2021/08/08 02:23:57;;;;;;;0.60;0.60;;;22.00;71.20;;;;;;5014108;28;20117;-50
2021/08/08 02:26:23;;;;;;;0.57;0.40;;;22.00;71.50;;;;;;5013958;28;20129;-48
2021/08/08 02:28:49;;;;;;;0.40;0.40;;;21.90;71.40;;;;;;5013546;28;20042;-51
2021/08/08 02:31:19;;;;;;;0.52;0.50;;;22.00;71.50;;;;;;5013803;28;20584;-51
2021/08/08 02:33:46;;;;;;;0.40;0.40;;;22.00;71.50;;;;;;5014023;28;20050;-48
2021/08/08 02:36:11;;;;;;;0.52;0.52;;;22.00;71.40;;;;;;5013329;28;20041;-48
2021/08/08 02:38:37;;;;;;;0.30;0.30;;;21.90;71.40;;;;;;5014147;28;20046;-50
2021/08/08 02:41:03;;;;;;;0.50;0.40;;;22.00;71.50;;;;;;5013796;28;20439;-50
2021/08/08 02:43:29;;;;;;;0.50;0.40;;;22.00;71.50;;;;;;5013911;28;20487;-49
2021/08/08 02:45:55;;;;;;;0.40;0.40;;;22.00;71.50;;;;;;5013031;28;20121;-49
2021/08/08 02:48:21;;;;;;;0.40;0.40;;;22.00;71.80;;;;;;5013244;28;20475;-47
2021/08/08 02:50:47;;;;;;;0.40;0.40;;;22.00;71.50;;;;;;5012902;28;20062;-50
2021/08/08 02:53:12;;;;;;;0.82;0.40;;;22.00;71.50;;;;;;5013683;28;20518;-48
2021/08/08 02:55:38;;;;;;;0.60;0.60;;;22.00;71.50;;;;;;5013155;28;20060;-47
2021/08/08 02:58:04;;;;;;;0.40;0.40;;;22.00;71.50;;;;;;5013488;28;20046;-50
2021/08/08 03:00:30;;;;;;;0.30;0.30;;;22.00;71.50;;;;;;5013377;28;20050;-49
2021/08/08 03:02:55;;;;;;;0.60;0.43;;;22.00;71.50;;;;;;5012708;28;20513;-48
2021/08/08 03:05:21;;;;;;;0.73;0.60;;;21.90;71.50;;;;;;5012195;28;20458;-47
2021/08/08 03:07:49;;;;;;;0.40;0.40;;;22.00;71.50;;;;;;5011085;28;20060;-50
2021/08/08 03:10:15;;;;;;;0.73;0.65;;;21.90;71.50;;;;;;5012873;28;20399;-52
2021/08/08 03:12:40;;;;;;;0.52;0.50;;;21.90;71.50;;;;;;5013220;28;20050;-49
2021/08/08 03:15:07;;;;;;;0.40;0.40;;;21.90;71.50;;;;;;5013399;28;20049;-49
2021/08/08 03:17:33;;;;;;;0.32;0.28;;;21.90;71.50;;;;;;5012043;28;20062;-50
2021/08/08 03:19:59;;;;;;;0.45;0.40;;;22.00;71.60;;;;;;5013106;28;20072;-50
2021/08/08 03:22:25;;;;;;;0.32;0.32;;;21.80;71.50;;;;;;5011939;28;20537;-49
2021/08/08 03:24:51;;;;;;;0.73;0.43;;;22.00;71.60;;;;;;5013156;28;20149;-49
2021/08/08 03:27:16;;;;;;;0.40;0.40;;;22.00;71.60;;;;;;5012424;28;20046;-51
2021/08/08 03:29:42;;;;;;;0.50;0.50;;;22.00;71.60;;;;;;5012843;28;20515;-51
2021/08/08 03:32:08;;;;;;;0.35;0.35;;;22.00;71.60;;;;;;5012608;28;20462;-50
2021/08/08 03:34:34;;;;;;;0.45;0.43;;;21.90;71.50;;;;;;5012566;28;20117;-49
2021/08/08 03:37:00;;;;;;;0.63;0.40;;;21.90;71.60;;;;;;5011760;28;20042;-50
2021/08/08 03:39:25;;;;;;;0.30;0.30;;;22.00;71.60;;;;;;5012038;28;20157;-55
2021/08/08 03:41:54;;;;;;;0.43;0.43;;;21.90;71.60;;;;;;5012245;28;20533;-51
2021/08/08 03:44:21;;;;;;;0.30;0.30;;;21.90;71.60;;;;;;5012580;28;20119;-48
2021/08/08 03:46:47;;;;;;;0.52;0.52;;;21.90;71.60;;;;;;5011781;28;20049;-48
2021/08/08 03:49:14;;;;;;;0.50;0.50;;;21.90;71.60;;;;;;5012218;28;20046;-48
2021/08/08 03:51:40;;;;;;;0.30;0.30;;;21.90;71.60;;;;;;5012347;28;20050;-50
2021/08/08 03:54:06;;;;;;;0.30;0.30;;;21.90;71.60;;;;;;5011697;28;20417;-50
2021/08/08 03:56:34;;;;;;;0.65;0.60;;;21.90;71.60;;;;;;5011673;28;20054;-50
2021/08/08 03:59:02;;;;;;;1.65;0.60;;;21.90;71.60;;;;;;5011411;28;20057;-47
2021/08/08 04:01:27;;;;;;;0.47;0.43;;;21.90;71.60;;;;;;5010857;28;20042;-47
2021/08/08 04:03:53;;;;;;;1.52;0.70;;;21.90;71.60;;;;;;5010174;28;20461;-47
2021/08/08 04:06:19;;;;;;;0.40;0.40;;;21.90;71.60;;;;;;5011626;28;20037;-49
2021/08/08 04:08:44;;;;;;;0.60;0.60;;;21.90;71.60;;;;;;5011560;28;20132;-53
2021/08/08 04:11:12;;;;;;;0.63;0.55;;;21.90;71.60;;;;;;5012052;28;20046;-48
2021/08/08 04:13:38;;;;;;;0.60;0.43;;;21.90;71.60;;;;;;5012108;28;20046;-49
2021/08/08 04:16:04;;;;;;;0.40;0.40;;;21.90;71.70;;;;;;5012341;28;20096;-46
2021/08/08 04:18:30;;;;;;;0.45;0.40;;;21.90;71.60;;;;;;5011637;28;20057;-47
2021/08/08 04:20:56;;;;;;;0.60;0.40;;;21.90;71.60;;;;;;5011839;28;20046;-51
2021/08/08 04:23:22;;;;;;;0.50;0.50;;;21.90;71.60;;;;;;5011721;28;20053;-47
2021/08/08 04:25:47;;;;;;;1.02;0.63;;;21.90;71.70;;;;;;5011757;28;20050;-48
2021/08/08 04:28:13;;;;;;;0.40;0.40;;;21.90;71.60;;;;;;5011837;28;20053;-51
2021/08/08 04:30:39;;;;;;;0.45;0.45;;;21.90;71.60;;;;;;5011824;28;20237;-50
2021/08/08 04:33:05;;;;;;;1.48;0.60;;;21.90;71.60;;;;;;5011812;28;20406;-46
2021/08/08 04:35:32;;;;;;;0.50;0.50;;;21.90;71.60;;;;;;5011962;28;20060;-54
2021/08/08 04:38:00;;;;;;;1.05;0.43;;;21.90;71.60;;;;;;5011459;28;20068;-54
2021/08/08 04:40:26;;;;;;;0.45;0.43;;;21.90;71.70;;;;;;5011361;28;20042;-51
2021/08/08 04:42:52;;;;;;;0.52;0.45;;;21.90;71.70;;;;;;5011521;28;20452;-43
2021/08/08 04:45:21;;;;;;;0.55;0.55;;;21.90;71.70;;;;;;5011843;28;20050;-41
2021/08/08 04:47:49;;;;;;;1.02;0.50;;;21.90;71.70;;;;;;5010382;28;20498;-49
2021/08/08 04:50:15;;;;;;;0.95;0.43;;;21.90;71.70;;;;;;5011933;28;20050;-51
2021/08/08 04:52:41;;;;;;;1.00;0.77;;;21.90;71.70;;;;;;5011615;28;20457;-47
2021/08/08 04:55:08;;;;;;;0.63;0.63;;;21.90;71.70;;;;;;5011927;28;20454;-48
2021/08/08 04:57:34;;;;;;;0.90;0.60;;;21.90;71.70;;;;;;5010966;28;20128;-50
2021/08/08 05:00:00;;;;;;;0.65;0.57;;;21.90;71.70;;;;;;5010935;28;20130;-50
2021/08/08 05:02:26;;;;;;;1.00;0.50;;;21.90;71.70;;;;;;5011640;28;20071;-47
2021/08/08 05:04:52;;;;;;;0.50;0.50;;;21.90;71.70;;;;;;5011400;28;20356;-47
2021/08/08 05:07:17;;;;;;;0.90;0.50;;;21.90;71.70;;;;;;5011425;28;20491;-52
2021/08/08 05:09:43;;;;;;;2.33;0.55;;;21.90;71.70;;;;;;5011363;28;20046;-51
2021/08/08 05:12:10;;;;;;;0.98;0.50;;;21.90;71.70;;;;;;5011141;28;20046;-52
2021/08/08 05:14:38;;;;;;;0.70;0.60;;;21.90;71.70;;;;;;5011708;28;20100;-56
2021/08/08 05:17:04;;;;;;;0.88;0.60;;;21.90;71.70;;;;;;5011458;28;20549;-55
2021/08/08 05:19:31;;;;;;;0.60;0.60;;;21.90;71.70;;;;;;5010795;28;20200;-50
2021/08/08 05:21:57;;;;;;;0.55;0.55;;;21.90;71.70;;;;;;5011276;28;20517;-56
2021/08/08 05:24:23;;;;;;;0.52;0.52;;;21.90;71.70;;;;;;5011549;28;20053;-55
2021/08/08 05:26:49;;;;;;;0.68;0.68;;;21.90;71.70;;;;;;5014878;28;20092;-56
2021/08/08 05:29:15;;;;;;;0.50;0.50;;;21.90;72.40;;;;;;5011759;28;20052;-52
2021/08/08 05:31:40;;;;;;;0.50;0.50;;;21.90;71.70;;;;;;5011246;28;20053;-54
2021/08/08 05:34:08;;;;;;;0.55;0.50;;;21.80;71.70;;;;;;5010860;28;20049;-51
2021/08/08 05:36:34;;;;;;;0.50;0.50;;;21.90;71.70;;;;;;5010930;28;20507;-54
2021/08/08 05:39:06;;;;;;;0.77;0.63;;;21.80;71.70;;;;;;5011234;28;20057;-53
2021/08/08 05:41:32;;;;;;;0.85;0.55;;;21.80;71.70;;;;;;5010672;28;20057;-53
2021/08/08 05:43:58;;;;;;;0.47;0.47;;;21.90;71.70;;;;;;5010383;28;20053;-46
2021/08/08 05:46:23;;;;;;;0.95;0.45;;;21.80;71.70;;;;;;5010797;28;20077;-54
2021/08/08 05:48:50;;;;;;;0.45;0.45;;;21.90;71.70;;;;;;5011637;28;20050;-47
2021/08/08 05:51:16;;;;;;;0.50;0.50;;;21.80;71.70;;;;;;5010954;28;20104;-45
2021/08/08 05:53:47;;;;;;;0.73;0.60;;;21.90;71.80;;;;;;5011361;28;20079;-48
2021/08/08 05:56:13;;;;;;;0.57;0.57;;;21.80;71.70;;;;;;5011372;28;20534;-48
2021/08/08 05:58:39;;;;;;;0.70;0.63;;;21.80;71.70;;;;;;5010749;28;20593;-45
2021/08/08 06:01:05;;;;;;;0.80;0.52;;;21.90;71.80;;;;;;5008970;28;20108;-47
2021/08/08 06:03:30;;;;;;;0.47;0.47;;;21.90;71.80;;;;;;5011033;28;20049;-52
2021/08/08 06:05:57;;;;;;;0.85;0.52;;;21.80;71.70;;;;;;5010695;28;20056;-45
2021/08/08 06:08:22;;;;;;;1.10;0.50;;;21.80;71.80;;;;;;5008730;28;20538;-46
2021/08/08 06:10:49;;;;;;;0.40;0.40;;;21.90;71.80;;;;;;5010116;28;20056;-53
2021/08/08 06:13:15;;;;;;;0.50;0.50;;;21.90;71.80;;;;;;5010550;28;20085;-48
2021/08/08 06:15:41;;;;;;;0.50;0.50;;;21.90;71.70;;;;;;5010404;28;20084;-57
2021/08/08 06:18:07;;;;;;;0.50;0.50;;;21.80;71.70;;;;;;5010241;28;20054;-54
2021/08/08 06:20:32;;;;;;;0.50;0.47;;;21.80;71.70;;;;;;5010565;28;20415;-48
2021/08/08 06:22:59;;;;;;;0.68;0.68;;;21.90;71.70;;;;;;5009874;28;20089;-55
2021/08/08 06:25:24;;;;;;;0.40;0.40;;;21.90;71.70;;;;;;5010521;28;20564;-58
2021/08/08 06:27:50;;;;;;;0.88;0.60;;;21.80;71.70;;;;;;5010611;28;20050;-54
2021/08/08 06:30:16;;;;;;;0.50;0.50;;;21.80;71.70;;;;;;5009770;28;20078;-51
2021/08/08 06:32:42;;;;;;;0.60;0.60;;;21.80;71.70;;;;;;5008724;28;20413;-52
2021/08/08 06:35:08;;;;;;;0.47;0.47;;;21.90;71.70;;;;;;5010060;28;20758;-46
2021/08/08 06:37:34;;;;;;;0.77;0.50;;;21.80;71.70;;;;;;5009322;28;20057;-58
2021/08/08 06:40:00;;;;;;;0.55;0.50;;;21.90;71.80;;;;;;5010738;28;20057;-47
2021/08/08 06:42:26;;;;;;;0.88;0.73;;;21.80;71.70;;;;;;5009870;28;20422;-51
2021/08/08 06:44:51;;;;;;;0.80;0.60;;;21.80;71.70;;;;;;5010549;28;20475;-48
2021/08/08 06:47:17;;;;;;;1.13;0.60;;;21.90;71.70;;;;;;5009506;28;20108;-53
2021/08/08 06:49:43;;;;;;;0.50;0.50;;;21.80;71.70;;;;;;5010411;28;20086;-45
2021/08/08 06:52:09;;;;;;;0.95;0.63;;;21.80;71.70;;;;;;5010076;28;20053;-50
2021/08/08 06:54:35;;;;;;;1.33;0.55;;;21.80;71.70;;;;;;5008894;28;20042;-48
2021/08/08 06:57:00;;;;;;;0.55;0.55;;;21.80;71.70;;;;;;5010327;28;20054;-49
2021/08/08 06:59:30;;;;;;;0.40;0.40;;;21.80;71.60;;;;;;5009897;28;20578;-52
2021/08/08 07:01:56;;;;;;;0.60;0.60;;;21.90;71.70;;;;;;5009136;28;20042;-50
2021/08/08 07:04:23;;;;;;;0.52;0.52;;;21.80;71.70;;;;;;5009789;28;20049;-54
2021/08/08 07:06:49;;;;;;;0.57;0.57;;;21.80;71.60;;;;;;5010212;28;20073;-49
2021/08/08 07:09:15;;;;;;;0.52;0.52;;;21.80;71.70;;;;;;5009225;28;20445;-44
2021/08/08 07:11:40;;;;;;;0.52;0.52;;;21.80;71.70;;;;;;5009496;28;20077;-51
2021/08/08 07:14:06;;;;;;;0.40;0.40;;;21.80;71.60;;;;;;5009750;28;20046;-57
2021/08/08 07:16:32;;;;;;;0.43;0.43;;;21.90;71.70;;;;;;5009421;28;20101;-49
2021/08/08 07:18:58;;;;;;;0.60;0.50;;;21.80;71.60;;;;;;5009339;28;20108;-49
2021/08/08 07:21:24;;;;;;;0.88;0.80;;;21.90;71.60;;;;;;5024148;28;20054;-48
2021/08/08 07:23:50;;;;;;;0.50;0.50;;;21.90;71.60;;;;;;5008913;28;20058;-47
2021/08/08 07:26:15;;;;;;;1.05;0.52;;;21.80;71.50;;;;;;5009573;28;20056;-49
2021/08/08 07:28:41;;;;;;;0.60;0.60;;;21.90;71.60;;;;;;5009563;28;20124;-50
2021/08/08 07:31:07;;;;;;;0.50;0.50;;;21.80;71.60;;;;;;5009682;28;20133;-53
2021/08/08 07:33:33;;;;;;;0.95;0.73;;;21.90;71.50;;;;;;5008295;28;20057;-45
2021/08/08 07:35:58;;;;;;;0.77;0.60;;;21.80;71.50;;;;;;5009229;28;20060;-49
2021/08/08 07:38:24;;;;;;;0.80;0.52;;;21.80;71.50;;;;;;5007740;28;20064;-49
2021/08/08 07:40:50;;;;;;;0.60;0.60;;;21.90;71.50;;;;;;5009574;28;20054;-43
2021/08/08 07:43:16;;;;;;;0.50;0.50;;;21.90;71.50;;;;;;5007242;28;20136;-45
2021/08/08 07:45:41;;;;;;;1.42;0.70;;;21.90;71.60;;;;;;5007425;28;20057;-45
2021/08/08 07:48:07;;;;;;;0.77;0.77;;;21.90;71.50;;;;;;5008303;28;20049;-43
2021/08/08 07:50:33;;;;;;;0.65;0.60;;;21.80;71.50;;;;;;5009240;28;20410;-42
2021/08/08 07:52:58;;;;;;;0.50;0.50;;;21.80;71.50;;;;;;5008381;28;20041;-48
2021/08/08 07:55:25;;;;;;;0.77;0.70;;;21.80;71.40;;;;;;5008975;28;20450;-47
2021/08/08 07:57:51;;;;;;;0.70;0.70;;;21.80;71.40;;;;;;5008427;28;20057;-48
2021/08/08 08:00:17;;;;;;;0.73;0.73;;;21.90;71.50;;;;;;5008741;28;20123;-48
2021/08/08 08:02:42;;;;;;;0.65;0.65;;;21.90;71.50;;;;;;5008521;28;20394;-45
2021/08/08 08:05:09;;;;;;;0.50;0.50;;;21.90;71.40;;;;;;5008354;28;20054;-40
2021/08/08 08:07:37;;;;;;;0.77;0.77;;;21.80;71.40;;;;;;5008518;28;20118;-49
2021/08/08 08:10:04;;;;;;;0.88;0.68;;;21.90;71.40;;;;;;5006939;28;20082;-43
2021/08/08 08:12:30;;;;;;;1.40;0.63;;;21.90;71.40;;;;;;5008596;28;20054;-43
2021/08/08 08:14:56;;;;;;;0.60;0.60;;;21.80;71.40;;;;;;5023420;28;20052;-45
2021/08/08 08:17:21;;;;;;;0.60;0.60;;;21.90;71.40;;;;;;5008216;28;20056;-44
2021/08/08 08:19:47;;;;;;;0.85;0.85;;;21.90;71.40;;;;;;5007695;28;20058;-42
2021/08/08 08:22:16;;;;;;;1.05;0.65;;;21.90;71.40;;;;;;5006946;28;20053;-46
2021/08/08 08:24:46;;;;;;;0.63;0.63;;;21.90;71.40;;;;;;5007916;28;20053;-47
2021/08/08 08:27:12;;;;;;;1.35;0.90;;;21.90;71.40;;;;;;5008003;28;20592;-48
2021/08/08 08:29:38;;;;;;;1.52;0.80;;;21.80;71.40;;;;;;5008002;28;20038;-49
2021/08/08 08:32:05;;;;;;;1.55;0.90;;;21.90;71.40;;;;;;5008265;28;20124;-45
2021/08/08 08:34:32;;;;;;;0.60;0.60;;;21.90;71.40;;;;;;5007287;28;20045;-45
2021/08/08 08:36:57;;;;;;;0.95;0.77;;;21.90;71.40;;;;;;5007770;28;20128;-45
2021/08/08 08:39:23;;;;;;;0.90;0.75;;;21.90;71.30;;;;;;5007875;28;20569;-44
2021/08/08 08:41:52;;;;;;;1.30;0.90;;;21.90;71.40;;;;;;5007950;28;20048;-51
2021/08/08 08:44:19;;;;;;;0.90;0.70;;;21.90;71.30;;;;;;5007449;28;20052;-46
2021/08/08 08:46:47;;;;;;;1.25;0.80;;;21.90;71.30;;;;;;5007598;28;20060;-48
2021/08/08 08:49:18;;;;;;;1.10;1.00;;;21.90;71.30;;;;;;5007994;28;20081;-47
2021/08/08 08:51:50;;;;;;;1.65;0.95;;;21.90;71.30;;;;;;5007224;28;20073;-47
2021/08/08 08:54:18;;;;;;;1.42;0.90;;;21.90;71.30;;;;;;5007493;28;20050;-52
2021/08/08 08:56:44;;;;;;;0.82;0.80;;;21.90;71.30;;;;;;5007868;28;20053;-44
2021/08/08 08:59:11;;;;;;;0.95;0.88;;;21.90;71.30;;;;;;5007861;28;20049;-42
2021/08/08 09:01:38;;;;;;;1.20;1.02;;;21.90;71.30;;;;;;5012569;28;20052;-45
2021/08/08 09:04:04;;;;;;;1.83;0.90;;;21.90;71.30;;;;;;5013939;28;20053;-41
2021/08/08 09:06:30;;;;;;;1.20;1.10;;;21.90;71.30;;;;;;5013992;28;20566;-41
2021/08/08 09:08:56;;;;;;;1.13;1.02;;;21.90;71.20;;;;;;5013395;28;20124;-41
2021/08/08 09:11:22;;;;;;;1.08;0.90;;;21.90;71.20;;;;;;5009424;28;20076;-49
2021/08/08 09:13:56;;;;;;;0.88;0.85;;;21.90;71.20;;;;;;5012333;28;20046;-42
2021/08/08 09:16:26;;;;;;;1.30;1.10;;;21.90;71.20;;;;;;5014597;28;20049;-44
2021/08/08 09:18:56;;;;;;;1.05;0.90;;;21.90;71.20;;;;;;5015144;28;20148;-45
2021/08/08 09:21:23;;;;;;;1.80;0.98;;;21.90;71.20;;;;;;5014481;28;20513;-44
2021/08/08 09:23:57;;;;;;;1.15;1.02;;;21.90;71.20;;;;;;5010759;28;20596;-44
2021/08/08 09:26:28;;;;;;;1.85;1.10;;;21.90;71.20;;;;;;5013164;28;20057;-44
2021/08/08 09:29:04;;;;;;;1.48;1.20;;;21.90;71.20;;;;;;5014143;28;20061;-45
2021/08/08 09:31:38;;;;;;;1.63;1.10;;;21.90;71.80;;;;;;5012076;28;20056;-42
2021/08/08 09:34:04;;;;;;;1.52;1.08;;;21.80;71.10;;;;;;5013734;28;20056;-40
2021/08/08 09:36:39;;;;;;;1.73;1.10;;;21.90;71.20;;;;;;5014519;28;20058;-44
2021/08/08 09:39:05;;;;;;;1.63;1.38;;;21.90;71.10;;;;;;5014062;28;20050;-46
2021/08/08 09:41:32;;;;;;;2.47;1.35;;;21.90;71.10;;;;;;5014993;28;20073;-44
2021/08/08 09:44:10;;;;;;;2.40;1.30;;;21.90;71.10;;;;;;5013739;28;20073;-42
2021/08/08 09:46:36;;;;;;;2.20;1.25;;;21.90;71.10;;;;;;5014307;28;20545;-47
2021/08/08 09:49:14;;;;;;;2.63;1.40;;;21.90;71.80;;;;;;5014407;28;20115;-45
2021/08/08 09:51:50;;;;;;;1.20;1.10;;;21.90;71.10;;;;;;5013720;28;20053;-42
2021/08/08 09:54:16;;;;;;;1.67;1.10;;;21.90;71.10;;;;;;5013666;28;20548;-44
2021/08/08 09:56:42;;;;;;;1.13;0.85;;;21.90;71.10;;;;;;5014610;28;20050;-44
2021/08/08 09:59:08;;;;;;;1.42;1.13;;;21.90;71.00;;;;;;5014194;28;20048;-51
2021/08/08 10:01:40;;;;;;;1.60;1.35;;;21.90;71.10;;;;;;5014033;28;20064;-51
2021/08/08 10:04:07;;;;;;;2.13;1.30;;;22.00;71.10;;;;;;4998186;28;20068;-52
2021/08/08 10:06:33;;;;;;;2.45;1.30;;;22.00;71.10;;;;;;5014017;28;20044;-48
2021/08/08 10:09:01;;;;;;;1.88;1.27;;;21.90;71.10;;;;;;5013463;28;20065;-49
2021/08/08 10:11:28;;;;;;;2.25;1.20;;;21.90;71.00;;;;;;5013502;28;20049;-47
2021/08/08 10:14:02;;;;;;;1.30;1.20;;;22.00;71.10;;;;;;5013807;28;20057;-49
2021/08/08 10:16:33;;;;;;;2.00;1.55;;;22.00;71.10;;;;;;5013571;28;20099;-49
2021/08/08 10:19:01;;;;;;;2.65;1.15;;;21.90;71.00;;;;;;5013771;28;20077;-46
2021/08/08 10:21:30;;;;;;;1.75;1.20;;;22.00;71.10;;;;;;5013919;28;20041;-50
2021/08/08 10:24:02;;;;;;;1.42;1.27;;;22.00;71.00;;;;;;5013462;28;20054;-43
2021/08/08 10:26:29;;;;;;;2.20;1.20;;;22.00;71.00;;;;;;5012691;28;20048;-45
2021/08/08 10:28:56;;;;;;;2.47;1.60;;;22.00;71.00;;;;;;5013493;28;20045;-44
2021/08/08 10:31:24;;;;;;;2.00;1.30;;;22.00;71.00;;;;;;5013860;28;20053;-46
2021/08/08 10:33:55;;;;;;;2.15;1.70;;;22.00;71.00;;;;;;5013623;28;20057;-52
2021/08/08 10:36:20;;;;;;;1.52;1.27;;;22.00;71.00;;;;;;5013249;28;20053;-50
2021/08/08 10:38:46;;;;;;;3.60;1.80;;;22.00;71.00;;;;;;5013377;28;20050;-44
2021/08/08 10:41:12;;;;;;;2.53;1.92;;;22.00;71.00;;;;;;5012525;28;20076;-49
2021/08/08 10:43:44;;;;;;;3.53;1.38;;;22.00;71.00;;;;;;5012552;28;20153;-49
2021/08/08 10:46:11;;;;;;;2.05;1.55;;;22.00;71.00;;;;;;5010437;28;20470;-48
2021/08/08 10:48:42;;;;;;;2.13;1.67;;;22.00;71.10;;;;;;5011842;28;20080;-47
2021/08/08 10:51:25;;;;;;;1.52;1.40;;;22.00;71.00;;;;;;5010033;28;20519;-47
2021/08/08 10:54:05;;;;;;;2.42;1.60;;;22.00;71.00;;;;;;5011973;28;20065;-50
2021/08/08 10:56:45;;;;;;;4.00;1.70;;;22.00;71.00;;;;;;5010723;28;20562;-45
2021/08/08 10:59:16;;;;;;;2.25;1.50;;;22.00;71.70;;;;;;5010503;28;20108;-49
2021/08/08 11:01:42;;;;;;;1.63;1.30;;;22.00;71.00;;;;;;5012229;28;20046;-48
2021/08/08 11:04:08;;;;;;;2.88;1.88;;;22.00;71.00;;;;;;5011791;28;20048;-47
2021/08/08 11:06:36;;;;;;;2.95;1.80;;;22.00;71.00;;;;;;5024387;28;20189;-43
2021/08/08 11:09:04;;;;;;;3.15;1.60;;;22.10;71.10;;;;;;5011549;28;20050;-47
2021/08/08 11:11:35;;;;;;;1.70;1.45;;;22.00;71.10;;;;;;5011625;28;20054;-45
2021/08/08 11:14:16;;;;;;;1.80;1.45;;;22.00;71.10;;;;;;5008356;28;20410;-46
2021/08/08 11:16:57;;;;;;;2.65;1.77;;;22.10;71.10;;;;;;5007388;28;20041;-43
2021/08/08 11:19:40;;;;;;;3.15;1.70;;;22.00;71.10;;;;;;5007550;28;20058;-46
2021/08/08 11:22:07;;;;;;;2.13;1.40;;;22.00;71.10;;;;;;5007505;28;20104;-52
2021/08/08 11:24:33;;;;;;;2.55;1.70;;;22.10;71.10;;;;;;5008651;28;20658;-51
2021/08/08 11:27:00;;;;;;;2.20;1.27;;;22.10;71.10;;;;;;5008424;28;20399;-47
2021/08/08 11:29:27;;;;;;;2.92;1.70;;;22.10;71.10;;;;;;5008555;28;20065;-53
2021/08/08 11:31:58;;;;;;;2.95;1.60;;;22.10;71.10;;;;;;5006986;28;20075;-54
2021/08/08 11:34:28;;;;;;;2.70;1.70;;;22.10;71.10;;;;;;5008888;28;20052;-44
2021/08/08 11:36:57;;;;;;;2.08;1.55;;;22.10;71.10;;;;;;5006424;28;20056;-44
2021/08/08 11:39:34;;;;;;;2.55;1.60;;;22.10;71.10;;;;;;5008916;28;20111;-47
2021/08/08 11:42:06;;;;;;;1.75;1.40;;;22.10;71.00;;;;;;5007234;28;20088;-51
2021/08/08 11:44:40;;;;;;;3.33;1.60;;;22.10;71.00;;;;;;5008162;28;20451;-51
2021/08/08 11:47:07;;;;;;;2.20;1.52;;;22.20;71.10;;;;;;5007891;28;20069;-54
2021/08/08 11:49:47;;;;;;;2.13;1.70;;;22.10;71.00;;;;;;5008645;28;20131;-51
2021/08/08 11:52:16;;;;;;;3.10;1.90;;;22.10;71.00;;;;;;5006035;28;20465;-48
2021/08/08 11:54:43;;;;;;;3.90;1.73;;;22.10;71.00;;;;;;5007928;28;20097;-55
2021/08/08 11:57:12;;;;;;;2.42;1.70;;;22.10;71.00;;;;;;5007803;28;20455;-54
2021/08/08 11:59:38;;;;;;;3.00;1.65;;;22.20;71.00;;;;;;5008102;28;20038;-48
2021/08/08 12:02:09;;;;;;;2.03;1.60;;;22.20;71.00;;;;;;5008598;28;20073;-42
2021/08/08 12:04:37;;;;;;;2.70;1.83;;;22.20;71.00;;;;;;5005506;28;20179;-42
2021/08/08 12:07:04;;;;;;;3.33;1.70;;;22.20;70.90;;;;;;5007550;28;20050;-45
2021/08/08 12:09:30;;;;;;;3.00;1.90;;;22.20;70.90;;;;;;5008308;28;20061;-47
2021/08/08 12:11:57;;;;;;;2.70;1.67;;;22.20;70.90;;;;;;5008306;28;20075;-47
2021/08/08 12:14:35;;;;;;;1.90;1.50;;;22.20;70.90;;;;;;5008091;28;20045;-46
2021/08/08 12:17:03;;;;;;;3.17;1.60;;;22.20;70.90;;;;;;5006717;28;20418;-44
2021/08/08 12:19:30;;;;;;;2.55;1.95;;;22.20;70.80;;;;;;5007864;28;20050;-51
2021/08/08 12:22:05;;;;;;;2.33;1.85;;;22.20;70.90;;;;;;5007825;28;20594;-50
2021/08/08 12:24:33;;;;;;;2.90;1.85;;;22.30;70.90;;;;;;5006643;28;20045;-47
2021/08/08 12:27:01;;;;;;;4.05;1.80;;;22.20;70.80;;;;;;5010870;28;20050;-56
2021/08/08 12:29:39;;;;;;;3.22;1.98;;;22.30;70.90;;;;;;5011448;28;20053;-43
2021/08/08 12:32:14;;;;;;;1.90;1.50;;;22.30;70.80;;;;;;5010776;28;20066;-45
2021/08/08 12:34:42;;;;;;;2.63;1.98;;;22.20;70.80;;;;;;5010538;28;20569;-51
2021/08/08 12:37:13;;;;;;;2.08;1.55;;;22.20;70.80;;;;;;5014767;28;20046;-53
2021/08/08 12:39:42;;;;;;;3.20;1.70;;;22.20;70.70;;;;;;5015303;28;20121;-59
2021/08/08 12:42:24;;;;;;;3.15;1.85;;;22.20;70.70;;;;;;5013926;28;20042;-56
2021/08/08 12:45:08;;;;;;;4.97;1.55;;;22.20;70.70;;;;;;5015205;28;20053;-50
2021/08/08 12:47:35;;;;;;;3.30;1.98;;;22.20;70.70;;;;;;5011676;28;20133;-47
2021/08/08 12:50:12;;;;;;;2.30;1.60;;;22.20;70.70;;;;;;5014555;28;20078;-41